Terminal Aerodrome Forecast
Issued by NWS Wichita, KS

Home | Current Version | Previous Version | Text Only | Print | Product List | Glossary Off
Versions: 1 2 3 4 5 6 7 8 9 10 11 12 13 14 15 16 17 18 19

223
FTUS43 KICT 240522
TAFICT
TAF
KICT 240522Z 2406/2506 17008KT P6SM SCT200
     FM241500 21013KT P6SM FEW150 SCT200
     FM250100 12007KT P6SM SCT120 BKN200=

USA.gov is the U.S. government's official web portal to all federal, state and local government web resources and services.